Boisdale, Canada
Current Conditions -  °F | °C
As of 3:38 PM on Thursday 27 Nov 2014 (Local Time) from CYQY Reporting Station
Light Rain Light Rain  
Wind Chill: 37°   Ceiling: 2600
Heat Index: 45°   Visibility: 6mi
Dew Point: 45°   Wind: 16mph
Humidity: 100%   Direction: 250°WSW
Pressure: 29.29"   Gusts: 26mph
Location:  46.1°N, 60.5°W
Report Text: CYQY 271938Z 25014G23KT 6SM -RA BR SCT007 BKN026 07/07 A2929 RMK ST4SC3 PRESRR SLP921
Loading
Personal Weather Stations






























Interactive Weather Map New forecast layout! Learn more

10-Day Weather Forecast

Advertisements
Track Severe Weather on mobile